createdAt,value
2022-08-16T00:01:33.872Z,40.30
2022-08-16T00:04:05.074Z,34.80
2022-08-16T00:06:34.775Z,39.60
2022-08-16T00:09:24.186Z,35.03
2022-08-16T00:11:55.490Z,34.70
2022-08-16T00:14:43.368Z,27.13
2022-08-16T00:17:16.387Z,21.37
2022-08-16T00:19:49.089Z,15.53
2022-08-16T00:22:24.704Z,16.63
2022-08-16T00:24:55.117Z,20.97
2022-08-16T00:27:24.750Z,19.23
2022-08-16T00:30:08.325Z,22.27
2022-08-16T00:33:01.082Z,36.87
2022-08-16T00:35:34.907Z,32.53
2022-08-16T00:38:40.058Z,35.17
2022-08-16T00:40:56.749Z,38.13
2022-08-16T00:43:42.480Z,32.10
2022-08-16T00:46:33.313Z,33.90
2022-08-16T00:49:17.791Z,33.07
2022-08-16T00:51:55.242Z,20.13
2022-08-16T00:54:27.442Z,22.60
2022-08-16T00:56:59.750Z,19.20
2022-08-16T00:59:54.855Z,16.60
2022-08-16T01:02:30.365Z,23.17
2022-08-16T01:05:09.308Z,32.00
2022-08-16T01:07:50.535Z,42.23
2022-08-16T01:10:20.888Z,30.37
2022-08-16T01:12:49.914Z,22.60
2022-08-16T01:15:19.793Z,24.47
2022-08-16T01:17:56.071Z,19.90
2022-08-16T01:20:30.411Z,28.63
2022-08-16T01:23:08.507Z,24.87
2022-08-16T01:25:45.022Z,24.13
2022-08-16T01:28:30.866Z,23.40
2022-08-16T01:31:01.477Z,39.80
2022-08-16T01:33:33.387Z,48.10
2022-08-16T01:36:12.051Z,44.67
2022-08-16T01:38:51.220Z,46.83
2022-08-16T01:41:31.484Z,59.00
2022-08-16T01:44:04.264Z,49.90
2022-08-16T01:46:53.562Z,37.93
2022-08-16T01:49:42.901Z,29.40
2022-08-16T01:52:29.586Z,33.73
2022-08-16T01:55:20.134Z,21.90
2022-08-16T01:57:56.396Z,18.67
2022-08-16T02:00:29.163Z,24.73
2022-08-16T02:03:01.340Z,21.83
2022-08-16T02:05:31.515Z,20.90
2022-08-16T02:08:04.864Z,17.40
2022-08-16T02:10:34.464Z,16.87
2022-08-16T02:13:07.677Z,22.20
2022-08-16T02:15:43.773Z,17.57
2022-08-16T02:18:18.776Z,16.57
2022-08-16T02:20:53.488Z,19.60
2022-08-16T02:23:23.881Z,20.17
2022-08-16T02:25:54.607Z,17.57
2022-08-16T02:28:26.943Z,18.83
2022-08-16T02:30:57.557Z,20.70
2022-08-16T02:33:42.805Z,20.00
2022-08-16T02:36:42.284Z,21.70
2022-08-16T02:39:22.961Z,26.50
2022-08-16T02:41:54.456Z,25.00
2022-08-16T02:44:28.400Z,28.83
2022-08-16T02:46:58.739Z,34.17
2022-08-16T02:49:58.243Z,19.03
2022-08-16T02:52:38.586Z,43.17
2022-08-16T02:55:10.999Z,47.03
2022-08-16T02:57:42.341Z,44.03
2022-08-16T03:00:34.395Z,39.33
2022-08-16T03:03:10.562Z,36.97
2022-08-16T03:05:40.085Z,32.97
2022-08-16T03:08:50.534Z,36.60
2022-08-16T03:11:01.171Z,30.23
2022-08-16T03:13:31.042Z,36.57
2022-08-16T03:16:33.086Z,78.07
2022-08-16T03:19:01.765Z,94.30
2022-08-16T03:21:38.073Z,130.10
2022-08-16T03:24:28.377Z,46.27
2022-08-16T03:27:01.773Z,41.47
2022-08-16T03:29:34.809Z,49.97
2022-08-16T03:32:07.913Z,47.53
2022-08-16T03:34:37.026Z,38.30
2022-08-16T03:37:06.420Z,33.67
2022-08-16T03:39:43.031Z,42.60
2022-08-16T03:42:20.519Z,46.30
2022-08-16T03:44:52.344Z,44.73
2022-08-16T03:47:35.034Z,65.70
2022-08-16T03:50:25.326Z,79.77
2022-08-16T03:53:01.301Z,42.83
2022-08-16T03:55:45.070Z,36.90
2022-08-16T03:58:14.418Z,34.80
2022-08-16T04:00:43.854Z,52.53
2022-08-16T04:03:19.412Z,60.07
2022-08-16T04:06:09.684Z,55.37
2022-08-16T04:08:39.665Z,37.33
2022-08-16T04:11:27.657Z,35.63
2022-08-16T04:14:32.676Z,54.27
2022-08-16T04:16:56.609Z,107.43
2022-08-16T04:19:36.300Z,85.40
2022-08-16T04:22:27.512Z,46.70
2022-08-16T04:25:01.777Z,44.50
2022-08-16T04:27:54.303Z,34.90
2022-08-16T04:30:32.469Z,28.13
2022-08-16T04:33:05.895Z,42.77
2022-08-16T04:35:39.687Z,38.83
2022-08-16T04:38:11.075Z,60.13
2022-08-16T04:40:54.391Z,51.50
2022-08-16T04:43:23.949Z,49.50
2022-08-16T04:46:00.508Z,37.60
2022-08-16T04:48:34.565Z,46.70
2022-08-16T04:51:12.711Z,62.57
2022-08-16T04:53:50.176Z,59.13
2022-08-16T04:56:22.032Z,50.20
2022-08-16T04:58:57.718Z,44.60
2022-08-16T05:01:47.734Z,36.97
2022-08-16T05:04:19.380Z,39.10
2022-08-16T05:06:52.865Z,36.90
2022-08-16T05:09:45.066Z,36.47
2022-08-16T05:12:22.093Z,45.20
2022-08-16T05:15:02.659Z,41.90
2022-08-16T05:17:37.887Z,69.70
2022-08-16T05:20:35.675Z,73.30
2022-08-16T05:23:04.886Z,59.60
2022-08-16T05:25:47.839Z,72.20
2022-08-16T05:28:20.999Z,57.53
2022-08-16T05:30:56.168Z,47.93
2022-08-16T05:33:28.442Z,66.40
2022-08-16T05:36:16.212Z,59.57
2022-08-16T05:38:54.925Z,34.17
2022-08-16T05:41:23.934Z,52.93
2022-08-16T05:43:59.239Z,39.93
2022-08-16T05:46:43.829Z,43.10
2022-08-16T05:49:22.165Z,56.33
2022-08-16T05:51:55.596Z,37.40
2022-08-16T05:54:28.122Z,35.90
2022-08-16T05:57:01.769Z,40.87
2022-08-16T05:59:33.351Z,35.33
2022-08-16T06:02:02.881Z,35.67
2022-08-16T06:04:37.888Z,54.33
2022-08-16T06:07:25.116Z,36.57
2022-08-16T06:10:32.027Z,34.37
2022-08-16T06:13:06.154Z,48.80
2022-08-16T06:15:37.021Z,60.10
2022-08-16T06:18:10.824Z,66.57
2022-08-16T06:20:51.677Z,53.27
2022-08-16T06:23:43.808Z,40.70
2022-08-16T06:26:17.563Z,33.70
2022-08-16T06:28:48.761Z,45.70
2022-08-16T06:31:25.026Z,31.90
2022-08-16T06:33:56.603Z,41.00
2022-08-16T06:36:28.207Z,45.50
2022-08-16T06:39:11.874Z,61.97
2022-08-16T06:42:11.603Z,48.33
2022-08-16T06:45:08.653Z,62.83
2022-08-16T06:47:54.125Z,28.07
2022-08-16T06:50:29.890Z,34.87
2022-08-16T06:53:19.829Z,43.33
2022-08-16T06:56:14.784Z,30.63
2022-08-16T06:59:02.077Z,40.83
2022-08-16T07:01:46.158Z,39.73
2022-08-16T07:04:32.396Z,52.30
2022-08-16T07:07:09.722Z,42.17
2022-08-16T07:09:40.873Z,34.03
2022-08-16T07:12:11.203Z,26.80
2022-08-16T07:14:49.905Z,34.13
2022-08-16T07:17:21.903Z,39.57
2022-08-16T07:22:52.801Z,31.20
2022-08-16T07:25:40.742Z,34.20
2022-08-16T07:28:20.600Z,51.67
2022-08-16T07:30:51.744Z,44.00
2022-08-16T07:33:52.296Z,29.00
2022-08-16T07:36:22.125Z,25.70
2022-08-16T07:38:53.009Z,57.17
2022-08-16T07:41:23.376Z,47.83
2022-08-16T07:44:00.105Z,37.43
2022-08-16T07:46:37.511Z,28.67
2022-08-16T07:49:13.318Z,39.50
2022-08-16T07:51:43.585Z,35.27
2022-08-16T07:54:21.062Z,24.13
2022-08-16T07:56:56.405Z,29.67
2022-08-16T07:59:27.193Z,55.37
2022-08-16T08:02:20.491Z,56.53
2022-08-16T08:04:56.352Z,21.50
2022-08-16T08:07:29.355Z,23.67
2022-08-16T08:10:29.471Z,21.50
2022-08-16T08:13:01.439Z,34.43
2022-08-16T08:15:34.441Z,29.30
2022-08-16T08:18:30.278Z,14.80
2022-08-16T08:20:59.203Z,15.57
2022-08-16T08:23:31.741Z,15.60
2022-08-16T08:26:01.135Z,18.70
2022-08-16T08:28:32.256Z,34.87
2022-08-16T08:31:05.840Z,36.03
2022-08-16T08:33:58.705Z,48.63
2022-08-16T08:36:34.959Z,33.67
2022-08-16T08:39:28.897Z,25.37
2022-08-16T08:41:57.970Z,26.20
2022-08-16T08:44:41.970Z,45.53
2022-08-16T08:47:16.618Z,42.57
2022-08-16T08:49:55.239Z,11.57
2022-08-16T08:52:34.775Z,9.60
2022-08-16T08:55:12.934Z,10.20
2022-08-16T08:58:00.276Z,13.67
2022-08-16T09:00:51.242Z,25.17
2022-08-16T09:03:23.204Z,19.40
2022-08-16T09:05:54.344Z,11.80
2022-08-16T09:08:26.516Z,16.17
2022-08-16T09:11:03.462Z,21.53
2022-08-16T09:13:39.078Z,22.33
2022-08-16T09:17:02.876Z,10.97
2022-08-16T09:21:44.460Z,20.53
2022-08-16T09:24:51.783Z,24.77
2022-08-16T09:27:14.732Z,38.33
2022-08-16T09:29:46.304Z,19.60
2022-08-16T09:32:28.619Z,28.57
2022-08-16T09:34:59.616Z,14.13
2022-08-16T09:37:36.369Z,15.07
2022-08-16T09:40:32.541Z,17.77
2022-08-16T09:42:59.752Z,17.07
2022-08-16T09:45:30.374Z,13.57
2022-08-16T09:48:00.264Z,11.17
2022-08-16T09:50:37.168Z,10.40
2022-08-16T09:53:14.719Z,11.57
2022-08-16T09:55:49.388Z,11.63
2022-08-16T09:58:41.956Z,13.53
2022-08-16T10:01:11.544Z,10.50
2022-08-16T10:04:02.014Z,9.03
2022-08-16T10:06:33.802Z,16.87
2022-08-16T10:09:23.430Z,7.00
2022-08-16T10:12:19.454Z,12.57
2022-08-16T10:15:09.320Z,7.93
2022-08-16T10:17:59.492Z,25.27
2022-08-16T10:20:50.052Z,17.97
2022-08-16T10:23:19.475Z,9.53
2022-08-16T10:27:18.564Z,12.13
2022-08-16T10:28:41.956Z,9.10
2022-08-16T10:31:16.868Z,12.40
2022-08-16T10:34:02.753Z,10.37
2022-08-16T10:36:37.836Z,15.53
2022-08-16T10:39:09.026Z,11.03
2022-08-16T10:41:39.570Z,9.33
2022-08-16T10:44:08.670Z,8.50
2022-08-16T10:46:41.744Z,10.77
2022-08-16T10:49:12.772Z,10.70
2022-08-16T10:52:02.410Z,12.33
2022-08-16T10:55:40.252Z,26.17
2022-08-16T10:57:43.916Z,14.13
2022-08-16T11:00:20.776Z,13.60
2022-08-16T11:02:58.055Z,13.93
2022-08-16T11:05:59.120Z,12.07
2022-08-16T11:08:31.210Z,21.43
2022-08-16T11:11:23.283Z,13.20
2022-08-16T11:13:58.921Z,19.83
2022-08-16T11:17:10.443Z,16.40
2022-08-16T11:20:00.728Z,18.05
2022-08-16T11:22:48.575Z,10.95
2022-08-16T11:28:36.144Z,17.48
2022-08-16T11:31:02.950Z,11.70
2022-08-16T11:36:22.301Z,9.48
2022-08-16T11:39:12.396Z,11.85
2022-08-16T11:41:43.675Z,15.43
2022-08-16T11:44:13.582Z,16.13
2022-08-16T11:46:50.773Z,19.05
2022-08-16T11:49:22.834Z,12.52
2022-08-16T11:51:51.758Z,11.68
2022-08-16T11:54:23.478Z,12.65
2022-08-16T11:57:02.491Z,11.05
2022-08-16T11:59:32.777Z,10.85
2022-08-16T12:02:30.677Z,12.55
2022-08-16T12:05:14.428Z,14.93
2022-08-16T12:07:45.089Z,10.93
2022-08-16T12:10:18.129Z,12.15
2022-08-16T12:12:48.119Z,8.00
2022-08-16T12:15:21.709Z,7.43
2022-08-16T12:17:52.688Z,7.78
2022-08-16T12:20:29.726Z,10.68
2022-08-16T12:22:59.424Z,7.43
2022-08-16T12:25:32.296Z,12.95
2022-08-16T12:28:36.943Z,9.35
2022-08-16T12:31:09.265Z,9.30
2022-08-16T12:33:44.821Z,13.68
2022-08-16T12:36:14.647Z,17.00
2022-08-16T12:38:48.344Z,21.02
2022-08-16T12:41:24.464Z,9.02
2022-08-16T12:43:57.021Z,10.82
2022-08-16T12:46:30.904Z,14.55
2022-08-16T12:49:01.926Z,10.30
2022-08-16T12:51:58.120Z,9.60
2022-08-16T12:54:23.107Z,14.75
2022-08-16T12:56:52.144Z,9.88
2022-08-16T12:59:22.094Z,10.00
2022-08-16T13:01:55.365Z,12.93
2022-08-16T13:04:31.425Z,19.33
2022-08-16T13:07:27.327Z,11.50
2022-08-16T13:09:58.533Z,11.10
2022-08-16T13:12:28.731Z,9.75
2022-08-16T13:14:58.771Z,8.32
2022-08-16T13:17:29.944Z,13.00
2022-08-16T13:20:21.419Z,12.70
2022-08-16T13:22:53.183Z,9.20
2022-08-16T13:25:42.325Z,14.75
2022-08-16T13:28:17.058Z,24.48
2022-08-16T13:30:50.636Z,12.65
2022-08-16T13:33:29.725Z,16.00
2022-08-16T13:36:02.088Z,13.30
2022-08-16T13:38:37.468Z,7.05
2022-08-16T13:41:08.832Z,14.35
2022-08-16T13:43:39.488Z,10.13
2022-08-16T13:46:09.400Z,19.30
2022-08-16T13:48:44.115Z,9.98
2022-08-16T13:51:20.874Z,9.65
2022-08-16T13:53:59.877Z,7.87
2022-08-16T13:56:37.770Z,20.87
2022-08-16T13:59:19.610Z,26.23
2022-08-16T14:01:55.987Z,26.27
2022-08-16T14:04:27.597Z,9.87
2022-08-16T14:06:59.298Z,10.33
2022-08-16T14:09:29.149Z,18.93
2022-08-16T14:12:22.822Z,20.70
2022-08-16T14:14:56.383Z,18.23
2022-08-16T14:17:27.295Z,13.83
2022-08-16T14:19:59.669Z,15.53
2022-08-16T14:22:39.949Z,11.17
2022-08-16T14:25:18.589Z,9.20
2022-08-16T14:27:48.406Z,7.10
2022-08-16T14:30:22.992Z,7.63
2022-08-16T14:32:52.830Z,16.07
2022-08-16T14:35:36.285Z,17.90
2022-08-16T14:38:08.052Z,33.40
2022-08-16T14:40:37.174Z,28.13
2022-08-16T14:43:08.531Z,14.03
2022-08-16T14:45:38.302Z,11.97
2022-08-16T14:48:08.504Z,12.67
2022-08-16T14:50:37.390Z,16.53
2022-08-16T14:53:10.736Z,37.57
2022-08-16T14:55:41.329Z,12.30
2022-08-16T14:58:19.219Z,14.97
2022-08-16T15:00:50.650Z,10.47
2022-08-16T15:03:23.502Z,8.07
2022-08-16T15:05:54.043Z,11.97
2022-08-16T15:08:45.832Z,9.60
2022-08-16T15:11:15.169Z,18.13
2022-08-16T15:13:46.788Z,27.13
2022-08-16T15:16:16.473Z,13.27
2022-08-16T15:18:46.629Z,10.10
2022-08-16T15:21:15.930Z,10.90
2022-08-16T15:23:46.480Z,12.03
2022-08-16T15:26:22.264Z,14.13
2022-08-16T15:29:04.311Z,19.57
2022-08-16T15:31:37.712Z,15.93
2022-08-16T15:34:06.601Z,14.63
2022-08-16T15:36:42.495Z,9.73
2022-08-16T15:39:30.359Z,16.63
2022-08-16T15:42:06.896Z,7.60
2022-08-16T15:44:51.850Z,19.40
2022-08-16T15:47:26.362Z,21.83
2022-08-16T15:49:56.415Z,20.23
2022-08-16T15:52:29.325Z,14.47
2022-08-16T15:55:07.455Z,23.40
2022-08-16T15:57:51.460Z,45.10
2022-08-16T16:00:22.504Z,41.10
2022-08-16T16:03:03.117Z,45.50
2022-08-16T16:05:32.246Z,44.73
2022-08-16T16:08:11.059Z,37.23
2022-08-16T16:10:54.218Z,25.17
2022-08-16T16:13:24.901Z,27.07
2022-08-16T16:15:55.963Z,36.03
2022-08-16T16:18:26.209Z,30.03
2022-08-16T16:21:13.908Z,53.37
2022-08-16T16:23:54.787Z,40.63
2022-08-16T16:26:33.341Z,31.03
2022-08-16T16:29:07.599Z,32.53
2022-08-16T16:31:59.083Z,32.13
2022-08-16T16:34:32.397Z,30.53
2022-08-16T16:37:22.890Z,31.93
2022-08-16T16:39:52.114Z,50.77
2022-08-16T16:42:29.291Z,47.80
2022-08-16T16:45:02.086Z,76.37
2022-08-16T16:47:40.668Z,84.30
2022-08-16T16:50:13.019Z,134.80
2022-08-16T16:52:44.416Z,135.40
2022-08-16T16:55:14.920Z,140.23
2022-08-16T16:57:59.010Z,127.70
2022-08-16T17:00:37.627Z,130.43
2022-08-16T17:03:16.858Z,128.30
2022-08-16T17:05:57.403Z,124.13
2022-08-16T17:08:57.096Z,74.67
2022-08-16T17:11:26.408Z,93.40
2022-08-16T17:14:00.745Z,165.97
2022-08-16T17:16:32.888Z,124.07
2022-08-16T17:19:17.558Z,220.63
2022-08-16T17:21:48.676Z,142.53
2022-08-16T17:24:19.834Z,153.47
2022-08-16T17:26:55.953Z,143.77
2022-08-16T17:29:30.694Z,54.13
2022-08-16T17:32:33.177Z,223.20
2022-08-16T17:34:51.035Z,92.87
2022-08-16T17:37:22.231Z,101.90
2022-08-16T17:40:25.854Z,81.87
2022-08-16T17:43:04.287Z,63.93
2022-08-16T17:45:34.738Z,95.43
2022-08-16T17:48:03.854Z,85.70
2022-08-16T17:50:32.933Z,106.47
2022-08-16T17:53:02.742Z,95.80
2022-08-16T17:55:34.457Z,86.47
2022-08-16T17:58:20.160Z,75.90
2022-08-16T18:00:56.082Z,62.30
2022-08-16T18:04:07.246Z,62.13
2022-08-16T18:06:17.953Z,55.77
2022-08-16T18:09:05.999Z,48.27
2022-08-16T18:11:40.736Z,79.40
2022-08-16T18:14:11.461Z,147.23
2022-08-16T18:16:42.772Z,181.70
2022-08-16T18:19:12.182Z,129.27
2022-08-16T18:21:59.732Z,125.07
2022-08-16T18:24:48.002Z,159.23
2022-08-16T18:27:26.562Z,152.20
2022-08-16T18:29:56.037Z,83.00
2022-08-16T18:32:27.725Z,115.40
2022-08-16T18:34:57.030Z,117.50
2022-08-16T18:37:26.156Z,45.10
2022-08-16T18:39:55.230Z,29.00
2022-08-16T18:42:27.187Z,42.00
2022-08-16T18:44:56.168Z,54.07
2022-08-16T18:47:26.668Z,53.83
2022-08-16T18:49:55.745Z,89.47
2022-08-16T18:52:26.040Z,84.57
2022-08-16T18:55:01.954Z,78.50
2022-08-16T18:57:43.305Z,89.13
2022-08-16T19:00:13.860Z,61.03
2022-08-16T19:02:58.787Z,35.60
2022-08-16T19:05:31.060Z,34.43
2022-08-16T19:08:01.315Z,44.90
2022-08-16T19:10:31.072Z,36.67
2022-08-16T19:13:01.278Z,41.33
2022-08-16T19:15:31.022Z,80.13
2022-08-16T19:18:04.741Z,85.70
2022-08-16T19:20:34.067Z,71.43
2022-08-16T19:23:05.404Z,39.50
2022-08-16T19:25:46.631Z,42.70
2022-08-16T19:28:50.663Z,57.57
2022-08-16T19:31:17.549Z,60.03
2022-08-16T19:33:54.264Z,54.77
2022-08-16T19:36:31.683Z,57.97
2022-08-16T19:39:20.108Z,58.70
2022-08-16T19:41:53.432Z,59.03
2022-08-16T19:44:24.064Z,53.83
2022-08-16T19:46:53.655Z,54.93
2022-08-16T19:49:24.085Z,63.33
2022-08-16T19:51:53.185Z,69.83
2022-08-16T19:54:22.019Z,49.40
2022-08-16T19:56:52.190Z,44.53
2022-08-16T19:59:44.614Z,31.07
2022-08-16T20:02:35.916Z,30.70
2022-08-16T20:05:10.299Z,35.60
2022-08-16T20:07:39.257Z,34.30
2022-08-16T20:10:10.494Z,21.83
2022-08-16T20:12:39.814Z,23.57
2022-08-16T20:15:15.994Z,21.80
2022-08-16T20:17:46.029Z,21.83
2022-08-16T20:20:19.228Z,44.80
2022-08-16T20:22:53.982Z,25.93
2022-08-16T20:25:28.147Z,33.60
2022-08-16T20:27:58.041Z,32.30
2022-08-16T20:30:27.465Z,60.87
2022-08-16T20:32:56.802Z,37.83
2022-08-16T20:35:29.622Z,38.57
2022-08-16T20:38:00.153Z,30.67
2022-08-16T20:40:35.135Z,34.97
2022-08-16T20:43:08.142Z,23.70
2022-08-16T20:45:37.737Z,34.13
2022-08-16T20:48:07.515Z,32.93
2022-08-16T20:50:38.501Z,29.17
2022-08-16T20:53:08.046Z,32.30
2022-08-16T20:55:40.243Z,39.03
2022-08-16T20:58:09.350Z,31.30
2022-08-16T21:00:38.485Z,32.97
2022-08-16T21:03:08.864Z,39.70
2022-08-16T21:05:39.899Z,41.73
2022-08-16T21:08:50.733Z,42.73
2022-08-16T21:10:59.474Z,47.77
2022-08-16T21:13:31.014Z,49.03
2022-08-16T21:16:00.958Z,45.27
2022-08-16T21:18:30.324Z,47.07
2022-08-16T21:21:00.926Z,51.17
2022-08-16T21:23:30.055Z,56.10
2022-08-16T21:25:59.803Z,36.50
2022-08-16T21:28:38.896Z,38.10
2022-08-16T21:31:30.472Z,53.33
2022-08-16T21:33:59.418Z,53.23
2022-08-16T21:36:35.624Z,72.30
2022-08-16T21:39:07.026Z,65.23
2022-08-16T21:41:38.560Z,63.53
2022-08-16T21:44:32.360Z,32.80
2022-08-16T21:47:08.107Z,50.83
2022-08-16T21:49:38.175Z,52.07
2022-08-16T21:52:26.119Z,37.90
2022-08-16T21:54:57.216Z,46.73
2022-08-16T21:57:26.404Z,46.53
2022-08-16T22:00:07.664Z,57.00
2022-08-16T22:02:39.282Z,35.17
2022-08-16T22:05:08.893Z,30.03
2022-08-16T22:07:39.187Z,26.90
2022-08-16T22:11:04.602Z,24.50
2022-08-16T22:12:58.840Z,21.27
2022-08-16T22:15:28.266Z,19.43
2022-08-16T22:17:59.208Z,26.97
2022-08-16T22:20:30.612Z,24.10
2022-08-16T22:23:12.179Z,23.83
2022-08-16T22:25:45.050Z,22.23
2022-08-16T22:28:15.562Z,21.43
2022-08-16T22:30:44.934Z,21.83
2022-08-16T22:33:16.740Z,16.17
2022-08-16T22:35:48.607Z,15.43
2022-08-16T22:38:53.620Z,14.80
2022-08-16T22:41:09.230Z,15.63
2022-08-16T22:43:38.235Z,23.57
2022-08-16T22:46:07.471Z,26.67
2022-08-16T22:48:39.473Z,29.20
2022-08-16T22:51:11.783Z,61.73
2022-08-16T22:53:42.158Z,74.20
2022-08-16T22:56:11.606Z,75.70
2022-08-16T22:58:40.630Z,66.30
2022-08-16T23:01:11.521Z,58.23
2022-08-16T23:03:41.182Z,39.13
2022-08-16T23:06:12.243Z,35.30
2022-08-16T23:08:43.531Z,38.93
2022-08-16T23:11:15.279Z,29.53
2022-08-16T23:13:52.651Z,53.03
2022-08-16T23:16:33.518Z,56.83
2022-08-16T23:19:03.686Z,70.87
2022-08-16T23:21:33.295Z,64.90
2022-08-16T23:24:03.922Z,55.13
2022-08-16T23:26:44.773Z,46.07
2022-08-16T23:29:23.230Z,42.17
2022-08-16T23:31:58.411Z,34.70
2022-08-16T23:34:29.763Z,41.43
2022-08-16T23:36:59.286Z,45.37
2022-08-16T23:39:47.943Z,45.73
2022-08-16T23:42:52.214Z,44.97
2022-08-16T23:45:07.869Z,49.33
2022-08-16T23:47:37.014Z,50.83
2022-08-16T23:50:06.721Z,50.33
2022-08-16T23:52:42.368Z,54.57
2022-08-16T23:55:26.026Z,47.17
2022-08-16T23:57:55.714Z,49.87
